• Join FlightAware (Why Join?)
  • Login
  • US Flag 
05:07AM EDT


 

Airport Tracker/Info


-or-


 

Live Flight TrackerFlight Track Log ✈ SWA3530 ✈ 06-Jan-2014 ✈ KHOU - KMSY

Flight Track Log - Related Links

Times and Time Zones

All times are in EST time to prevent confusion due to time zone crossing. See the SWA3530 flight status page for this flight to view local times or setup timezone preferences in your user account.

Time Position Orientation Groundspeed Altitude Reporting Facility
EST Latitude Longitude Course Direction KTS MPH feet Rate Location/Type
02:17PM 29.6678 -95.2300 77° East 221 254 3,600  Level Houston Center
02:17PM 29.6681 -95.2306 300° West 202 232 3,500 1,620 Descending Houston Center
02:18PM 29.6589 -95.1514 98° East 237 273 5,600 2,520 Climbing Houston Center
02:19PM 29.6728 -95.0611 80° East 279 321 8,800 2,580 Climbing Houston Center
02:20PM 29.6914 -94.9344 80° East 326 375 11,000 2,640 Climbing Houston Center
02:21PM 29.7128 -94.8083 79° East 394 453 14,300 2,580 Climbing Houston Center
02:22PM 29.7333 -94.6803 79° East 404 465 16,400 1,920 Climbing Houston Center
02:23PM 29.7478 -94.5400 83° East 433 498 18,300 1,980 Climbing Houston Center
02:24PM 29.7650 -94.3969 82° East 448 516 20,600 1,980 Climbing Houston Center
02:25PM 29.7814 -94.2494 83° East 461 531 22,500 1,920 Climbing Houston Center
02:26PM 29.8039 -94.0611 82° East 481 554 24,600 1,800 Climbing Houston Center
02:27PM 29.8214 -93.9028 83° East 498 573 26,300 1,620 Climbing Houston Center
02:28PM 29.8389 -93.7431 83° East 505 581 28,000 1,260 Climbing Houston Center
02:29PM 29.8575 -93.5800 82° East 515 593 29,000 1,260 Climbing Houston Center
02:30PM 29.8756 -93.4136 83° East 525 604 30,700 1,620 Climbing Houston Center
02:31PM 29.8958 -93.2153 83° East 526 605 32,400 1,080 Climbing Houston Center
02:32PM 29.9133 -93.0494 83° East 526 605 33,000 120 Climbing Houston Center
02:33PM 29.9311 -92.8808 83° East 533 613 32,700 -780 Descending Houston Center
02:34PM 29.9489 -92.7083 83° East 542 624 31,500 -840 Descending Houston Center
02:35PM 29.9658 -92.5367 83° East 543 625 31,000 -240 Descending Houston Center
02:36PM 29.9858 -92.3364 83° East 531 611 31,000 -1,260 Level Houston Center
02:37PM 30.0011 -92.1647 84° East 535 616 28,400 -2,520 Descending Houston Center
02:39PM 30.0194 -91.9928 83° East 540 621 25,900 -2,340 Descending Houston Center
02:40PM 30.0367 -91.8317 83° East 518 596 23,600 -2,400 Descending Houston Center
02:41PM 30.0525 -91.6553 84° East 485 558 21,000 -2,280 Descending Houston Center
02:42PM 30.0664 -91.5094 84° East 464 534 18,900 -1,860 Descending Houston Center
02:43PM 30.0792 -91.3692 84° East 445 512 17,200 -2,040 Descending Houston Center
02:44PM 30.0925 -91.2303 84° East 439 505 14,800 -2,580 Descending Houston Center
02:44PM 30.0950 -91.1814 87° East 433 498 14,000 -2,340 Descending Houston Center
02:45PM 30.1036 -91.0953 83° East 428 493 12,400 -2,460 Descending Houston Center
02:45PM 30.1069 -91.0681 82° East 421 484 12,000 -1,800 Descending Houston Center
02:46PM 30.1017 -90.9408 93° East 393 452 10,600 -1,500 Descending Houston Center
02:46PM 30.1028 -90.9389 57° Northeast 412 474 10,500 -1,140 Descending Houston Center
02:47PM 30.0925 -90.8211 96° East 370 426 9,500 -1,020 Descending Houston Center
02:47PM 30.0931 -90.8211 360° North 381 438 9,500 -960 Level Houston Center
02:48PM 30.0786 -90.7142 99° East 357 411 8,500 -1,080 Descending Houston Center
02:49PM 30.0639 -90.6156 100° East 307 353 7,400 -1,080 Descending Houston Center
02:49PM 30.0636 -90.6153 139° Southeast 335 386 7,400 -960 Level Houston Center
02:51PM 30.0311 -90.4222 101° East 299 344 5,500 -1,020 Descending Houston Center
02:51PM 30.0328 -90.4233 330° Northwest 311 358 5,400 -1,020 Descending Houston Center
02:52PM 29.9836 -90.3617 133° Southeast 264 304 4,500 -1,020 Descending Houston Center
02:52PM 29.9764 -90.3594 165° South 291 335 4,400 -1,020 Descending Houston Center
02:53PM 29.9169 -90.3689 188° South 229 264 3,500 -1,080 Descending Houston Center
02:53PM 29.9114 -90.3683 175° South 257 296 3,300 -660 Descending Houston Center
02:54PM 29.8711 -90.3781 192° South 220 253 3,000 -420 Descending Houston Center
02:54PM 29.8508 -90.3767 177° South 233 268 2,900 -180 Descending Houston Center
02:55PM 29.8358 -90.3194 107° East 193 222 2,800 -120 Descending Houston Center
02:55PM 29.8364 -90.3172 74° East 218 251 2,800 -600 Level Houston Center
02:56PM 29.8603 -90.2922 42° Northeast 164 189 2,400 -600 Descending Houston Center
02:56PM 29.8725 -90.2850 27° Northeast 187 215 2,200 -600 Descending Houston Center
02:57PM 29.9225 -90.2719 13° North 165 190 1,500 -720 Descending Houston Center
02:58PM 29.9389 -90.2650 20° North 129 148 1,100 -900 Descending Houston Center
02:58PM 29.9564 -90.2622 North 144 166 600 -840 Descending Houston Center
02:59PM 29.9719 -90.2564 18° North 121 139 300 -600 Descending Houston Center